Mount Lookout, WV (26678)

9:38 AM EST on February 09, 2016 (GMT -0500)
Summersville | | Change Station
CLOSE
Current Station
Personal Weather Station
Location: Summersville, WV
Elevation: 1932 ft
Nearby Weather Stations
Active Advisory: Winter Weather Advisory

Elev 1932 ft 38.30 °N, 80.84 °W | Updated 3 minutes ago

Overcast
Overcast
23.9 °F
Feels Like 20 °F
N
3.1
Wind Variable Wind from SW

Today
High -- | Low -- °F
--% Chance of Precip.
Yesterday
High -- | Low -- °F
Precip. -- in
Pressure 29.73 in
Visibility 10.0 miles
Clouds Mostly Cloudy 1800 ft
Overcast 4100 ft
Windchill 20 °F
Dew Point 19 °F
Humidity 81%
Rainfall 0.00 in
Snow Depth Not available.
7:21 AM 5:54 PM
New Moon, 1% visible
METAR KBKW 091351Z AUTO 28008KT 10SM BKN018 OVC041 M07/M09 A2963 RMK AO2 SNE27B35E44 SLP068 P0000 T10671094
Pressure 29.73 in
Visibility 10.0 miles
Clouds Mostly Cloudy 1800 ft
Overcast 4100 ft
Windchill 20 °F
Dew Point 19 °F
Humidity 81%
Rainfall 0.00 in
Snow Depth Not available.
7:21 AM 5:54 PM
New Moon, 1% visible
METAR KBKW 091351Z AUTO 28008KT 10SM BKN018 OVC041 M07/M09 A2963 RMK AO2 SNE27B35E44 SLP068 P0000 T10671094

10-Day Weather Forecast

Almanac

Astronomy

Feb. 09, 2016 Rise Set
Actual Time
Civil Twilight
Nautical Twilight
Astronomical Twilight
Moon
Length of Visible Light
Length of Day
Tomorrow will be .
, % of the Moon is Illuminated

Today's Extremes

State Highs State Lows

Community

WunderPhotos

Upload Photos

1,891,606 photos uploaded!

WunderBlog® & News

Nearby

Air Quality

  Air Quality AQ Index Pollutant
Not available.

Snow Depth

Station Depth Elevation

Earthquake Activity

City Distance Mag. Time & Date
Minimum magnitude displayed is 2.5.

Coastal Water Temperatures

Place Temperature

Stations

Nearby Weather Stations

Station Location Temp. Windchill Dew Point Humidity Wind Precip. Elev Updated Type
                   

Watches & Warnings

Winter Weather Advisory
Issued: 4:54 AM EST Feb. 9, 2016 – National Weather Service

... Winter Weather Advisory remains in effect until 7 am EST
Wednesday...

* hazard types... snow.

* Snow accumulations... 3 to 6 inches.

* Timing... snow showers will be frequent today through tonight but
may even linger into Wednesday.

* Impacts... travel may be difficult at times.Wet snow last night
may make for ice beneath the snow... making the roads that much
more treacherous. Visibilities will be limited at times.

Precautionary/preparedness actions...

A Winter Weather Advisory for snow means that periods of snow
will cause primarily travel difficulties. Be prepared for snow
covered roads and limited visibilities... and use caution while
driving.



Trm